Time;durP1;ratioP1;P1;durP2;ratioP2;P2;SDS_P1;SDS_P2;PMS_P1;PMS_P2;Temp;Humidity;BMP_temperature;BMP_pressure;BME280_temperature;BME280_humidity;BME280_pressure;Samples;Min_cycle;Max_cycle;Signal;HPM_P1;HPM_P2
2022/10/19 00:00:51;;;;;;;8.33;7.23;;;20.10;86.60;;;-142.21;100.00;112049.66;5115221;28;20212;-71
2022/10/19 00:03:18;;;;;;;7.90;7.20;;;20.20;86.80;;;-142.21;100.00;112049.66;5114979;28;20282;-72
2022/10/19 00:05:47;;;;;;;8.13;7.33;;;20.10;86.70;;;-142.21;100.00;112049.66;5114482;28;20238;-72
2022/10/19 00:08:14;;;;;;;7.37;6.67;;;20.10;86.70;;;-142.21;100.00;112049.66;5114059;28;20349;-72
2022/10/19 00:10:41;;;;;;;9.67;6.97;;;20.10;86.70;;;-142.21;100.00;112049.66;5114798;28;20316;-72
2022/10/19 00:13:08;;;;;;;7.50;6.80;;;20.10;87.00;;;-142.21;100.00;112049.66;5113835;28;20671;-72
2022/10/19 00:15:40;;;;;;;7.17;6.47;;;20.10;86.70;;;-142.21;100.00;112049.66;5114984;28;20545;-72
2022/10/19 00:18:08;;;;;;;7.07;6.47;;;20.00;86.70;;;-142.21;100.00;112049.66;5114142;28;20223;-72
2022/10/19 00:20:36;;;;;;;6.50;5.90;;;20.00;86.60;;;-142.21;100.00;112049.66;5114383;28;20679;-72
2022/10/19 00:23:04;;;;;;;7.43;6.07;;;20.00;86.50;;;-142.21;100.00;112049.66;5114850;28;20210;-72
2022/10/19 00:25:32;;;;;;;7.10;6.30;;;20.00;86.60;;;-142.21;100.00;112049.66;5113883;28;20295;-71
2022/10/19 00:27:59;;;;;;;6.50;5.90;;;20.00;86.50;;;-142.21;100.00;112049.66;5114509;28;20210;-71
2022/10/19 00:30:26;;;;;;;6.83;6.20;;;19.90;86.50;;;-142.21;100.00;112049.66;5113756;28;20220;-71
2022/10/19 00:32:53;;;;;;;7.83;6.03;;;20.00;86.60;;;-142.21;100.00;112049.66;5114156;28;20640;-71
2022/10/19 00:35:21;;;;;;;6.10;5.50;;;19.90;86.60;;;-142.21;100.00;112049.66;5114039;28;20579;-70
2022/10/19 00:37:48;;;;;;;6.53;5.93;;;19.90;86.60;;;-142.21;100.00;112049.66;5114509;28;20208;-71
2022/10/19 00:40:16;;;;;;;6.83;6.17;;;19.90;87.30;;;-142.21;100.00;112049.66;5113812;28;20299;-71
2022/10/19 00:42:44;;;;;;;6.90;5.87;;;19.90;86.70;;;-142.21;100.00;112049.66;5114201;28;20227;-72
2022/10/19 00:45:17;;;;;;;6.93;6.33;;;19.90;86.70;;;-142.21;100.00;112049.66;5113352;28;20279;-72
2022/10/19 00:47:45;;;;;;;7.97;7.20;;;19.90;86.80;;;-142.21;100.00;112049.66;5113446;28;20286;-72
2022/10/19 00:50:16;;;;;;;7.03;6.37;;;19.90;86.80;;;-142.21;100.00;112049.66;5112982;28;20200;-71
2022/10/19 00:52:43;;;;;;;7.17;6.13;;;19.90;86.70;;;-142.21;100.00;112049.66;5095131;28;20214;-72
2022/10/19 00:55:12;;;;;;;8.33;6.70;;;19.90;86.70;;;-142.21;100.00;112049.66;5113976;28;20199;-72
2022/10/19 00:57:41;;;;;;;10.30;6.80;;;19.80;86.60;;;-142.21;100.00;112049.66;5114065;28;20827;-71
2022/10/19 01:00:10;;;;;;;10.03;6.30;;;19.90;86.90;;;-142.21;100.00;112049.66;5113942;28;20196;-71
2022/10/19 01:02:37;;;;;;;8.17;6.80;;;19.90;86.90;;;-142.21;100.00;112049.66;5113785;28;20303;-71
2022/10/19 01:05:07;;;;;;;8.00;7.20;;;19.90;87.00;;;-142.21;100.00;112049.66;5113622;28;20295;-71
2022/10/19 01:07:34;;;;;;;7.63;6.70;;;19.80;86.90;;;-142.21;100.00;112049.66;5113157;28;20208;-71
2022/10/19 01:10:02;;;;;;;7.77;6.97;;;19.90;86.90;;;-142.21;100.00;112049.66;5113951;28;20290;-71
2022/10/19 01:13:06;;;;;;;8.60;7.43;;;19.80;86.70;;;-142.21;100.00;112049.66;5113117;28;20321;-71
2022/10/19 01:15:46;;;;;;;8.23;7.43;;;19.80;86.80;;;-142.21;100.00;112049.66;5099328;28;20286;-71
2022/10/19 01:18:22;;;;;;;8.40;7.57;;;19.80;87.00;;;-142.21;100.00;112049.66;5112595;28;20228;-71
2022/10/19 01:21:23;;;;;;;8.27;7.47;;;19.80;87.00;;;-142.21;100.00;112049.66;5113941;28;20203;-72
2022/10/19 01:24:34;;;;;;;8.63;6.27;;;19.80;87.10;;;-142.21;100.00;112049.66;5112940;28;20282;-71
2022/10/19 01:27:41;;;;;;;9.40;6.97;;;19.80;87.00;;;-142.21;100.00;112049.66;5113152;28;20628;-71
2022/10/19 01:30:17;;;;;;;7.00;6.30;;;19.70;86.70;;;-142.21;100.00;112049.66;5112787;28;20227;-71
2022/10/19 01:33:15;;;;;;;6.87;6.27;;;19.70;86.60;;;-142.21;100.00;112049.66;5108151;28;20191;-71
2022/10/19 01:35:53;;;;;;;6.40;5.80;;;19.70;86.70;;;-142.21;100.00;112049.66;5093006;28;20304;-72
2022/10/19 01:38:34;;;;;;;7.10;6.10;;;19.70;86.70;;;-142.21;100.00;112049.66;5092300;28;20195;-71
2022/10/19 01:41:15;;;;;;;6.50;5.90;;;19.70;86.70;;;-142.21;100.00;112049.66;5102995;28;20217;-72
2022/10/19 01:43:50;;;;;;;7.60;6.77;;;19.60;86.60;;;-142.21;100.00;112049.66;5113033;28;20567;-73
2022/10/19 01:46:29;;;;;;;7.00;6.30;;;19.70;86.60;;;-142.21;100.00;112049.66;5101715;28;20568;-71
2022/10/19 01:49:04;;;;;;;8.87;6.53;;;19.60;86.50;;;-142.21;100.00;112049.66;5112925;28;20715;-72
2022/10/19 01:51:42;;;;;;;7.80;7.10;;;19.60;86.50;;;-142.21;100.00;112049.66;5112527;28;20612;-72
2022/10/19 01:54:15;;;;;;;7.87;6.57;;;19.60;86.50;;;-142.21;100.00;112049.66;5112813;28;20753;-71
2022/10/19 01:56:48;;;;;;;7.07;6.47;;;19.70;86.60;;;-142.21;100.00;112049.66;5113085;28;20299;-71
2022/10/19 01:59:19;;;;;;;8.10;7.30;;;19.60;86.70;;;-142.21;100.00;112049.66;5098246;28;20245;-71
2022/10/19 02:01:51;;;;;;;8.37;7.50;;;19.70;86.80;;;-142.21;100.00;112049.66;5112673;28;20214;-72
2022/10/19 02:04:22;;;;;;;7.27;6.57;;;19.60;86.80;;;-142.21;100.00;112049.66;5112371;28;20196;-72
2022/10/19 02:06:51;;;;;;;8.10;7.40;;;19.60;86.80;;;-142.21;100.00;112049.66;5112054;28;20208;-72
2022/10/19 02:09:19;;;;;;;8.90;8.00;;;19.60;86.90;;;-142.21;100.00;112049.66;5112238;28;20203;-71
2022/10/19 02:11:51;;;;;;;8.47;7.27;;;19.60;86.80;;;-142.21;100.00;112049.66;5112643;28;20709;-72
2022/10/19 02:14:24;;;;;;;8.50;7.23;;;19.60;86.80;;;-142.21;100.00;112049.66;5112382;28;20219;-72
2022/10/19 02:17:02;;;;;;;8.57;7.67;;;19.60;86.90;;;-142.21;100.00;112049.66;5112702;28;20198;-71
2022/10/19 02:19:29;;;;;;;8.37;7.57;;;19.50;86.80;;;-142.21;100.00;112049.66;5111668;28;20254;-71
2022/10/19 02:21:57;;;;;;;9.70;7.70;;;19.50;86.80;;;-142.21;100.00;112049.66;5112350;28;20222;-72
2022/10/19 02:24:24;;;;;;;8.47;7.67;;;19.50;86.80;;;-142.21;100.00;112049.66;5111978;28;20188;-72
2022/10/19 02:26:53;;;;;;;10.47;7.03;;;19.60;86.90;;;-142.21;100.00;112049.66;5112429;28;20200;-72
2022/10/19 02:29:21;;;;;;;8.53;7.67;;;19.50;86.80;;;-142.21;100.00;112049.66;5111578;28;20296;-72
2022/10/19 02:32:01;;;;;;;7.70;7.00;;;19.50;86.70;;;-142.21;100.00;112049.66;5095943;28;20545;-72
2022/10/19 02:34:29;;;;;;;10.03;7.67;;;19.50;86.70;;;-142.21;100.00;112049.66;5112028;28;20187;-72
2022/10/19 02:36:57;;;;;;;7.87;7.10;;;19.50;86.70;;;-142.21;100.00;112049.66;5111686;28;20944;-72
2022/10/19 02:39:25;;;;;;;8.13;7.30;;;19.50;86.60;;;-142.21;100.00;112049.66;5111874;28;20196;-71
2022/10/19 02:42:01;;;;;;;7.87;7.17;;;19.50;86.70;;;-142.21;100.00;112049.66;5111702;28;20605;-71
2022/10/19 02:44:36;;;;;;;8.23;7.43;;;19.60;86.70;;;-142.21;100.00;112049.66;5111866;28;20210;-71
2022/10/19 02:47:12;;;;;;;9.00;7.90;;;19.50;86.60;;;-142.21;100.00;112049.66;5112230;28;20194;-71
2022/10/19 02:49:41;;;;;;;8.00;7.27;;;19.50;86.50;;;-142.21;100.00;112049.66;5111620;28;20286;-71
2022/10/19 02:52:12;;;;;;;7.93;7.13;;;19.50;86.50;;;-142.21;100.00;112049.66;5112067;28;20192;-72
2022/10/19 02:54:42;;;;;;;8.37;6.87;;;19.50;86.50;;;-142.21;100.00;112049.66;5111875;28;20441;-71
2022/10/19 02:57:18;;;;;;;7.77;6.97;;;19.50;86.40;;;-142.21;100.00;112049.66;5111800;28;20283;-72
2022/10/19 02:59:46;;;;;;;7.37;6.67;;;19.50;86.50;;;-142.21;100.00;112049.66;5060042;28;20207;-71
2022/10/19 03:02:15;;;;;;;8.47;6.70;;;19.50;86.40;;;-142.21;100.00;112049.66;5112182;28;20480;-71
2022/10/19 03:04:44;;;;;;;7.13;6.43;;;19.50;86.50;;;-142.21;100.00;112049.66;5111674;28;20522;-72
2022/10/19 03:07:14;;;;;;;7.10;6.40;;;19.50;86.60;;;-142.21;100.00;112049.66;5112672;28;20600;-71
2022/10/19 03:09:41;;;;;;;7.60;6.80;;;19.40;86.50;;;-142.21;100.00;112049.66;5112585;28;20203;-72
2022/10/19 03:12:09;;;;;;;7.03;6.33;;;19.40;86.40;;;-142.21;100.00;112049.66;5115252;28;20196;-72
2022/10/19 03:14:36;;;;;;;7.13;6.43;;;19.30;86.30;;;-142.21;100.00;112049.66;5115302;28;20226;-72
2022/10/19 03:17:04;;;;;;;7.77;6.47;;;19.30;86.30;;;-142.21;100.00;112049.66;5115617;28;20196;-72
2022/10/19 03:19:34;;;;;;;6.73;6.03;;;19.30;86.30;;;-142.21;100.00;112049.66;5114582;28;20234;-72
2022/10/19 03:22:01;;;;;;;7.27;6.30;;;19.30;86.40;;;-142.21;100.00;112049.66;5115971;28;20215;-72
2022/10/19 03:24:30;;;;;;;10.10;6.50;;;19.30;86.40;;;-142.21;100.00;112049.66;5115179;28;20210;-71
2022/10/19 03:26:58;;;;;;;7.30;6.57;;;19.30;86.50;;;-142.21;100.00;112049.66;5115373;28;20446;-71
2022/10/19 03:29:25;;;;;;;8.90;6.00;;;19.30;86.50;;;-142.21;100.00;112049.66;5114675;28;20691;-71
2022/10/19 03:31:53;;;;;;;8.33;6.60;;;19.30;86.50;;;-142.21;100.00;112049.66;5115206;28;20662;-72
2022/10/19 03:34:20;;;;;;;7.50;6.70;;;19.30;86.70;;;-142.21;100.00;112049.66;5114714;28;20207;-71
2022/10/19 03:36:48;;;;;;;12.27;6.50;;;19.30;86.60;;;-142.21;100.00;112049.66;5115417;28;20451;-72
2022/10/19 03:39:17;;;;;;;9.63;6.83;;;19.30;86.60;;;-142.21;100.00;112049.66;5115587;28;20208;-72
2022/10/19 03:41:44;;;;;;;8.70;7.10;;;19.30;86.70;;;-142.21;100.00;112049.66;5114995;28;20212;-72
2022/10/19 03:44:12;;;;;;;10.03;7.33;;;19.30;86.70;;;-142.21;100.00;112049.66;5115726;28;20254;-73
2022/10/19 03:46:40;;;;;;;9.00;7.37;;;19.30;86.70;;;-142.21;100.00;112049.66;5114256;28;20196;-72
2022/10/19 03:49:08;;;;;;;10.40;7.93;;;19.30;86.80;;;-142.21;100.00;112049.66;5115414;28;20187;-71
2022/10/19 03:51:36;;;;;;;8.93;7.77;;;19.30;86.80;;;-142.21;100.00;112049.66;5114612;28;20227;-72
2022/10/19 03:54:08;;;;;;;10.13;7.23;;;19.30;86.90;;;-142.21;100.00;112049.66;5115365;28;20234;-71
2022/10/19 03:56:36;;;;;;;9.40;8.30;;;19.30;87.00;;;-142.21;100.00;112049.66;5114220;28;20467;-71
2022/10/19 03:59:06;;;;;;;10.43;8.20;;;19.30;87.00;;;-142.21;100.00;112049.66;5115124;28;20200;-71
2022/10/19 04:01:36;;;;;;;11.40;8.17;;;19.30;87.00;;;-142.21;100.00;112049.66;5114524;28;20632;-72
2022/10/19 04:04:06;;;;;;;10.00;6.93;;;19.30;86.90;;;-142.21;100.00;112049.66;5115060;28;20192;-72
2022/10/19 04:06:36;;;;;;;8.80;7.07;;;19.30;86.90;;;-142.21;100.00;112049.66;5114265;28;20231;-72
2022/10/19 04:09:06;;;;;;;8.20;7.37;;;19.30;86.80;;;-142.21;100.00;112049.66;5115082;28;20286;-71
2022/10/19 04:11:35;;;;;;;8.53;7.27;;;19.30;86.80;;;-142.21;100.00;112049.66;5114168;28;20284;-71
2022/10/19 04:14:02;;;;;;;9.83;7.77;;;19.30;86.80;;;-142.21;100.00;112049.66;5115278;28;20290;-71
2022/10/19 04:16:31;;;;;;;9.27;7.53;;;19.30;86.80;;;-142.21;100.00;112049.66;5114111;28;20543;-71
2022/10/19 04:18:59;;;;;;;8.83;7.63;;;19.30;86.80;;;-142.21;100.00;112049.66;5114644;28;20231;-71
2022/10/19 04:21:29;;;;;;;12.57;9.13;;;19.30;86.90;;;-142.21;100.00;112049.66;5113898;28;20304;-71
2022/10/19 04:24:01;;;;;;;10.67;8.33;;;19.30;86.90;;;-142.21;100.00;112049.66;5114277;28;20200;-72
2022/10/19 04:26:29;;;;;;;11.53;8.53;;;19.30;87.00;;;-142.21;100.00;112049.66;5114074;28;20193;-71
2022/10/19 04:28:58;;;;;;;14.70;10.20;;;19.30;87.00;;;-142.21;100.00;112049.66;5115091;28;20227;-73
2022/10/19 04:31:26;;;;;;;13.13;9.17;;;19.30;87.10;;;-142.21;100.00;112049.66;5114266;28;20218;-71
2022/10/19 04:33:53;;;;;;;13.27;10.00;;;19.30;87.10;;;-142.21;100.00;112049.66;5114313;28;20218;-71
2022/10/19 04:36:20;;;;;;;16.27;10.37;;;19.30;87.20;;;-142.21;100.00;112049.66;5114462;28;20238;-72
2022/10/19 04:38:47;;;;;;;13.13;9.93;;;19.30;87.20;;;-142.21;100.00;112049.66;5114209;28;20442;-71
2022/10/19 04:41:17;;;;;;;16.10;11.53;;;19.30;87.20;;;-142.21;100.00;112049.66;5113861;28;20222;-71
2022/10/19 04:43:47;;;;;;;16.67;11.10;;;19.30;87.40;;;-142.21;100.00;112049.66;5095736;28;20287;-72
2022/10/19 04:46:17;;;;;;;16.83;12.00;;;19.30;87.50;;;-142.21;100.00;112049.66;5114432;28;20283;-72
2022/10/19 04:48:46;;;;;;;16.50;12.10;;;19.30;87.50;;;-142.21;100.00;112049.66;5113580;28;21009;-71
2022/10/19 04:51:15;;;;;;;15.67;11.57;;;19.30;87.40;;;-142.21;100.00;112049.66;5114294;28;20576;-71
2022/10/19 04:53:44;;;;;;;17.23;13.03;;;19.30;87.50;;;-142.21;100.00;112049.66;5113228;28;20832;-71
2022/10/19 04:56:14;;;;;;;17.33;12.70;;;19.30;87.60;;;-142.21;100.00;112049.66;5113634;28;20204;-72
2022/10/19 04:58:42;;;;;;;16.97;12.77;;;19.30;87.60;;;-142.21;100.00;112049.66;5113959;28;20495;-72
2022/10/19 05:01:13;;;;;;;18.43;13.30;;;19.40;87.60;;;-142.21;100.00;112049.66;5113790;28;20196;-71
2022/10/19 05:03:41;;;;;;;19.33;13.73;;;19.30;87.60;;;-142.21;100.00;112049.66;5112904;28;20692;-72
2022/10/19 05:06:10;;;;;;;19.07;13.53;;;19.30;87.60;;;-142.21;100.00;112049.66;5113414;28;20192;-71
2022/10/19 05:08:41;;;;;;;16.33;12.20;;;19.30;87.50;;;-142.21;100.00;112049.66;5112818;28;20454;-71
2022/10/19 05:11:13;;;;;;;18.73;13.47;;;19.40;87.60;;;-142.21;100.00;112049.66;5113364;28;20226;-70
2022/10/19 05:13:41;;;;;;;16.90;13.57;;;19.40;87.60;;;-142.21;100.00;112049.66;5061353;28;20200;-71
2022/10/19 05:16:15;;;;;;;20.33;13.27;;;19.30;87.60;;;-142.21;100.00;112049.66;5113206;28;20286;-72
2022/10/19 05:18:43;;;;;;;17.53;12.87;;;19.30;87.80;;;-142.21;100.00;112049.66;5079450;28;20230;-71
2022/10/19 05:21:12;;;;;;;19.40;13.30;;;19.30;87.90;;;-142.21;100.00;112049.66;5113436;28;20469;-73
2022/10/19 05:23:41;;;;;;;19.00;13.43;;;19.30;88.00;;;-142.21;100.00;112049.66;5112476;28;20722;-70
2022/10/19 05:26:10;;;;;;;15.90;13.23;;;19.30;88.00;;;-142.21;100.00;112049.66;5113452;28;20200;-71
2022/10/19 05:28:38;;;;;;;20.97;14.23;;;19.40;88.20;;;-142.21;100.00;112049.66;5112907;28;20468;-71
2022/10/19 05:31:08;;;;;;;19.27;13.63;;;19.40;88.10;;;-142.21;100.00;112049.66;5113205;28;20440;-71
2022/10/19 05:33:38;;;;;;;17.03;13.53;;;19.30;88.00;;;-142.21;100.00;112049.66;5112110;28;20278;-71
2022/10/19 05:36:16;;;;;;;18.50;14.37;;;19.30;87.90;;;-142.21;100.00;112049.66;5113130;28;20246;-71
2022/10/19 05:38:44;;;;;;;18.03;14.23;;;19.30;87.90;;;-142.21;100.00;112049.66;5112585;28;20191;-71
2022/10/19 05:41:12;;;;;;;16.57;13.10;;;19.30;87.50;;;-142.21;100.00;112049.66;5113311;28;20540;-70
2022/10/19 05:43:40;;;;;;;14.40;12.17;;;19.30;87.50;;;-142.21;100.00;112049.66;5094338;28;20255;-72
2022/10/19 05:46:11;;;;;;;16.17;12.63;;;19.30;87.50;;;-142.21;100.00;112049.66;5112779;28;20509;-70
2022/10/19 05:48:40;;;;;;;15.33;12.27;;;19.30;87.50;;;-142.21;100.00;112049.66;5105011;28;20664;-71
2022/10/19 05:51:12;;;;;;;14.00;12.23;;;19.30;87.50;;;-142.21;100.00;112049.66;5112820;28;20220;-71
2022/10/19 05:53:40;;;;;;;12.90;10.93;;;19.20;87.30;;;-142.21;100.00;112049.66;5112724;28;20476;-70
2022/10/19 05:56:12;;;;;;;10.37;9.27;;;19.20;87.20;;;-142.21;100.00;112049.66;5113145;28;20206;-71
2022/10/19 05:58:39;;;;;;;11.03;9.83;;;19.20;86.90;;;-142.21;100.00;112049.66;5112328;28;20422;-72
2022/10/19 06:01:08;;;;;;;13.00;9.33;;;19.20;86.70;;;-142.21;100.00;112049.66;5112603;28;20291;-70
2022/10/19 06:03:35;;;;;;;10.27;9.17;;;19.10;86.60;;;-142.21;100.00;112049.66;5112325;28;20216;-72
2022/10/19 06:06:06;;;;;;;10.83;8.90;;;19.10;86.70;;;-142.21;100.00;112049.66;5111943;28;20568;-71
2022/10/19 06:08:35;;;;;;;10.53;9.43;;;19.20;86.90;;;-142.21;100.00;112049.66;5112034;28;20195;-71
2022/10/19 06:11:07;;;;;;;11.30;10.20;;;19.20;86.80;;;-142.21;100.00;112049.66;5112675;28;20200;-71
2022/10/19 06:13:35;;;;;;;12.33;9.83;;;19.20;86.70;;;-142.21;100.00;112049.66;5111974;28;20447;-71
2022/10/19 06:16:03;;;;;;;11.37;9.93;;;19.10;86.70;;;-142.21;100.00;112049.66;5113220;28;20204;-71
2022/10/19 06:18:30;;;;;;;11.43;9.80;;;19.20;86.70;;;-142.21;100.00;112049.66;5111467;28;21024;-70
2022/10/19 06:21:04;;;;;;;11.97;10.00;;;19.20;86.70;;;-142.21;100.00;112049.66;5112552;28;20208;-71
2022/10/19 06:23:32;;;;;;;13.07;9.87;;;19.20;86.70;;;-142.21;100.00;112049.66;5112166;28;20593;-72
2022/10/19 06:26:02;;;;;;;12.10;9.73;;;19.20;86.90;;;-142.21;100.00;112049.66;5112476;28;20200;-71
2022/10/19 06:28:29;;;;;;;17.23;9.90;;;19.20;86.90;;;-142.21;100.00;112049.66;5112091;28;20206;-71
2022/10/19 06:30:57;;;;;;;12.27;9.90;;;19.20;87.00;;;-142.21;100.00;112049.66;5112648;28;20477;-71
2022/10/19 06:33:26;;;;;;;12.37;10.00;;;19.20;86.90;;;-142.21;100.00;112049.66;5112829;28;20196;-71
2022/10/19 06:35:53;;;;;;;12.27;9.83;;;19.20;86.70;;;-142.21;100.00;112049.66;5111367;28;20648;-71
2022/10/19 06:38:22;;;;;;;9.53;8.43;;;19.20;86.70;;;-142.21;100.00;112049.66;5112641;28;20207;-71
2022/10/19 06:40:49;;;;;;;12.17;9.13;;;19.20;86.70;;;-142.21;100.00;112049.66;5112279;28;20769;-72
2022/10/19 06:43:16;;;;;;;10.83;8.73;;;19.20;86.80;;;-142.21;100.00;112049.66;5112859;28;20836;-72
2022/10/19 06:45:43;;;;;;;11.47;9.30;;;19.20;86.60;;;-142.21;100.00;112049.66;5115731;28;20299;-72
2022/10/19 06:48:11;;;;;;;11.00;8.80;;;19.20;86.60;;;-142.21;100.00;112049.66;5116748;28;20207;-72
2022/10/19 06:50:38;;;;;;;10.77;8.97;;;19.20;86.60;;;-142.21;100.00;112049.66;5115832;28;20539;-72
2022/10/19 06:53:05;;;;;;;9.77;8.20;;;19.30;86.80;;;-142.21;100.00;112049.66;5116454;28;20292;-71
2022/10/19 06:55:33;;;;;;;11.67;8.77;;;19.30;86.80;;;-142.21;100.00;112049.66;5115797;28;20294;-72
2022/10/19 06:58:01;;;;;;;12.73;9.27;;;19.30;86.80;;;-142.21;100.00;112049.66;5116333;28;20528;-71
2022/10/19 07:00:28;;;;;;;9.97;8.33;;;19.30;86.60;;;-142.21;100.00;112049.66;5116341;28;20526;-71
2022/10/19 07:02:56;;;;;;;10.93;8.37;;;19.30;86.50;;;-142.21;100.00;112049.66;5116499;28;20580;-72
2022/10/19 07:05:23;;;;;;;11.80;8.27;;;19.30;86.60;;;-142.21;100.00;112049.66;5115999;28;20207;-71
2022/10/19 07:07:50;;;;;;;12.03;8.33;;;19.30;86.50;;;-142.21;100.00;112049.66;5115704;28;20855;-71
2022/10/19 07:10:17;;;;;;;11.23;7.63;;;19.30;86.40;;;-142.21;100.00;112049.66;5116434;28;20243;-72
2022/10/19 07:12:49;;;;;;;13.73;9.10;;;19.30;86.40;;;-142.21;100.00;112049.66;5115469;28;20231;-71
2022/10/19 07:15:16;;;;;;;12.60;8.13;;;19.40;86.40;;;-142.21;100.00;112049.66;5116307;28;20271;-71
2022/10/19 07:17:43;;;;;;;11.60;8.13;;;19.40;86.30;;;-142.21;100.00;112049.66;5115333;28;20257;-71
2022/10/19 07:20:11;;;;;;;12.20;8.40;;;19.40;86.20;;;-142.21;100.00;112049.66;5115955;28;20426;-71
2022/10/19 07:22:38;;;;;;;12.30;8.77;;;19.40;86.20;;;-142.21;100.00;112049.66;5115620;28;20476;-71
2022/10/19 07:25:06;;;;;;;11.87;9.10;;;19.50;86.30;;;-142.21;100.00;112049.66;5116017;28;20291;-71
2022/10/19 07:27:38;;;;;;;14.23;8.40;;;19.50;86.30;;;-142.21;100.00;112049.66;5115454;28;20260;-71
2022/10/19 07:30:08;;;;;;;10.90;8.67;;;19.50;86.20;;;-142.21;100.00;112049.66;5116019;28;20457;-71
2022/10/19 07:32:36;;;;;;;10.93;8.83;;;19.50;86.30;;;-142.21;100.00;112049.66;5114864;28;20237;-71
2022/10/19 07:35:03;;;;;;;10.20;8.83;;;19.60;86.40;;;-142.21;100.00;112049.66;5115954;28;20463;-71
2022/10/19 07:37:31;;;;;;;11.30;8.70;;;19.50;86.20;;;-142.21;100.00;112049.66;5097424;28;20498;-71
2022/10/19 07:39:59;;;;;;;12.67;8.73;;;19.60;86.20;;;-142.21;100.00;112049.66;5115899;28;20268;-71
2022/10/19 07:42:29;;;;;;;10.13;8.50;;;19.60;86.30;;;-142.21;100.00;112049.66;5115545;28;20268;-71
2022/10/19 07:44:56;;;;;;;12.43;9.63;;;19.70;86.10;;;-142.21;100.00;112049.66;5114991;28;20184;-71
2022/10/19 07:47:27;;;;;;;13.40;9.97;;;19.70;85.90;;;-142.21;100.00;112049.66;5115385;28;20204;-71
2022/10/19 07:49:55;;;;;;;11.20;9.23;;;19.70;85.80;;;-142.21;100.00;112049.66;5114958;28;20191;-71
2022/10/19 07:52:25;;;;;;;11.77;9.30;;;19.70;85.70;;;-142.21;100.00;112049.66;5115248;28;20211;-72
2022/10/19 07:54:52;;;;;;;13.23;9.53;;;19.80;86.00;;;-142.21;100.00;112049.66;5114718;28;20495;-71
2022/10/19 07:57:21;;;;;;;11.23;8.97;;;19.80;85.50;;;-142.21;100.00;112049.66;5115558;28;20632;-71
2022/10/19 07:59:48;;;;;;;12.43;8.97;;;19.80;85.60;;;-142.21;100.00;112049.66;5115091;28;20226;-70
2022/10/19 08:02:18;;;;;;;11.60;9.20;;;19.80;85.50;;;-142.21;100.00;112049.66;5115304;28;20454;-72
2022/10/19 08:04:49;;;;;;;9.83;8.10;;;19.80;85.50;;;-142.21;100.00;112049.66;5114844;28;20211;-72
2022/10/19 08:07:17;;;;;;;10.27;8.57;;;19.80;85.50;;;-142.21;100.00;112049.66;5115693;28;20221;-70
2022/10/19 08:09:44;;;;;;;9.93;8.30;;;19.80;85.40;;;-142.21;100.00;112049.66;5114534;28;20260;-71
2022/10/19 08:12:11;;;;;;;12.07;9.13;;;19.80;85.40;;;-142.21;100.00;112049.66;5115217;28;20200;-71
2022/10/19 08:14:39;;;;;;;9.57;8.57;;;19.80;85.00;;;-142.21;100.00;112049.66;5114826;28;20203;-70
2022/10/19 08:17:06;;;;;;;10.13;7.67;;;19.90;85.00;;;-142.21;100.00;112049.66;5114869;28;20272;-71
2022/10/19 08:19:33;;;;;;;9.50;8.00;;;19.80;85.70;;;-142.21;100.00;112049.66;5114722;28;20236;-71
2022/10/19 08:22:02;;;;;;;10.80;8.53;;;19.90;84.70;;;-142.21;100.00;112049.66;5115026;28;20660;-71
2022/10/19 08:24:29;;;;;;;9.23;7.87;;;19.90;84.70;;;-142.21;100.00;112049.66;5114617;28;20234;-71
2022/10/19 08:26:57;;;;;;;10.63;8.43;;;19.80;84.60;;;-142.21;100.00;112049.66;5114471;28;20200;-70
2022/10/19 08:29:24;;;;;;;10.47;8.63;;;19.80;84.50;;;-142.21;100.00;112049.66;5114534;28;20242;-71
2022/10/19 08:31:51;;;;;;;10.53;8.33;;;19.90;84.50;;;-142.21;100.00;112049.66;5113981;28;20281;-71
2022/10/19 08:34:19;;;;;;;10.00;8.00;;;19.80;84.40;;;-142.21;100.00;112049.66;5114880;28;20581;-72
2022/10/19 08:36:46;;;;;;;10.43;8.17;;;19.80;84.60;;;-142.21;100.00;112049.66;5114044;28;20203;-72
2022/10/19 08:39:16;;;;;;;9.67;8.53;;;19.80;84.50;;;-142.21;100.00;112049.66;5114608;28;20577;-71
2022/10/19 08:42:01;;;;;;;9.80;8.13;;;19.80;84.40;;;-142.21;100.00;112049.66;5114258;28;20278;-72
2022/10/19 08:45:08;;;;;;;9.83;7.83;;;19.90;84.40;;;-142.21;100.00;112049.66;5114490;28;20509;-71
2022/10/19 08:47:59;;;;;;;10.73;8.40;;;19.90;84.20;;;-142.21;100.00;112049.66;5114237;28;20221;-72
2022/10/19 08:50:36;;;;;;;10.80;8.03;;;19.90;83.80;;;-142.21;100.00;112049.66;5114200;28;20479;-71
2022/10/19 08:53:07;;;;;;;11.10;7.80;;;20.00;84.00;;;-142.21;100.00;112049.66;5114299;28;20612;-71
2022/10/19 08:55:55;;;;;;;9.93;7.10;;;20.10;83.80;;;-142.21;100.00;112049.66;5114248;28;20194;-71
2022/10/19 08:58:48;;;;;;;7.27;6.57;;;20.10;83.50;;;-142.21;100.00;112049.66;5061673;28;20294;-70
2022/10/19 09:01:33;;;;;;;8.63;7.53;;;20.10;83.30;;;-142.21;100.00;112049.66;5114002;28;20219;-71
2022/10/19 09:04:06;;;;;;;8.67;6.93;;;20.10;83.30;;;-142.21;100.00;112049.66;5113523;28;20243;-71
2022/10/19 09:06:47;;;;;;;9.20;7.50;;;20.20;83.40;;;-142.21;100.00;112049.66;5113244;28;20253;-71
2022/10/19 09:09:18;;;;;;;8.43;7.50;;;20.10;83.30;;;-142.21;100.00;112049.66;5113768;28;20676;-72
2022/10/19 09:11:51;;;;;;;8.93;7.73;;;20.20;83.10;;;-142.21;100.00;112049.66;5113437;28;20715;-70
2022/10/19 09:14:27;;;;;;;8.60;7.63;;;20.10;83.00;;;-142.21;100.00;112049.66;5113989;28;20238;-71
2022/10/19 09:17:01;;;;;;;8.20;6.63;;;20.10;83.20;;;-142.21;100.00;112049.66;5113480;28;20195;-71
2022/10/19 09:19:30;;;;;;;8.93;7.10;;;20.20;83.00;;;-142.21;100.00;112049.66;5113636;28;20262;-71
2022/10/19 09:22:06;;;;;;;8.63;7.73;;;20.20;83.00;;;-142.21;100.00;112049.66;5112868;28;20668;-71
2022/10/19 09:24:43;;;;;;;9.13;7.73;;;20.20;82.50;;;-142.21;100.00;112049.66;5113759;28;20264;-72
2022/10/19 09:27:21;;;;;;;8.77;7.73;;;20.20;82.50;;;-142.21;100.00;112049.66;5114100;28;20218;-71
2022/10/19 09:29:54;;;;;;;9.40;6.50;;;20.20;82.30;;;-142.21;100.00;112049.66;5112768;28;20219;-70
2022/10/19 09:32:28;;;;;;;7.00;6.17;;;20.30;82.20;;;-142.21;100.00;112049.66;5114105;28;20191;-72
2022/10/19 09:35:01;;;;;;;8.53;7.23;;;20.40;82.30;;;-142.21;100.00;112049.66;5113355;28;20191;-71
2022/10/19 09:37:30;;;;;;;7.93;6.73;;;20.50;81.90;;;-142.21;100.00;112049.66;5113538;28;20199;-70
2022/10/19 09:39:57;;;;;;;8.43;6.67;;;20.60;81.80;;;-142.21;100.00;112049.66;5112816;28;20233;-71
2022/10/19 09:42:29;;;;;;;7.87;6.93;;;20.70;81.50;;;-142.21;100.00;112049.66;5112981;28;20288;-72
2022/10/19 09:45:00;;;;;;;6.83;6.13;;;20.80;81.30;;;-142.21;100.00;112049.66;5112768;28;20215;-71
2022/10/19 09:47:35;;;;;;;6.87;6.17;;;20.80;81.10;;;-142.21;100.00;112049.66;5113162;28;20191;-71
2022/10/19 09:50:19;;;;;;;8.83;7.27;;;20.90;80.90;;;-142.21;100.00;112049.66;5112561;28;20219;-71
2022/10/19 09:52:48;;;;;;;7.30;6.60;;;20.90;79.70;;;-142.21;100.00;112049.66;5112318;28;20279;-71
2022/10/19 09:55:33;;;;;;;8.47;6.50;;;21.00;80.00;;;-142.21;100.00;112049.66;5113416;28;20229;-70
2022/10/19 09:58:15;;;;;;;7.57;6.50;;;20.90;79.90;;;-142.21;100.00;112049.66;5112106;28;20677;-71
2022/10/19 10:00:45;;;;;;;7.70;6.83;;;21.00;80.30;;;-142.21;100.00;112049.66;5112695;28;20192;-70
2022/10/19 10:03:27;;;;;;;7.80;7.03;;;21.00;80.00;;;-142.21;100.00;112049.66;5112964;28;20192;-71
2022/10/19 10:05:58;;;;;;;8.13;6.87;;;21.00;79.50;;;-142.21;100.00;112049.66;5112458;28;20260;-71